KGNT

Grants-Milan Municipal Airport

Grants, New Mexico, USA
METAR KGNT 230255Z AUTO 23005KT 10SM CLR 18/M08 A3002 RMK AO2 LTG DSNT NE T01811083
Observed Flight Rules
May-23 @ 02:55 UTC (6 minutes ago) Visual Flight Rules
Wind Visibility Clouds
230° at 5 knots 10 miles
  • Clear skies
Temperatures Readings
Current 18°C / 64°F
Dewpoint -8°C / 18°F
Humidity 16%
Altimeter 30.02" Hg
Pressure 1017 hPa
Elevation 1987
METAR KGNT 230255Z AUTO 23005KT 10SM CLR 18/M08 A3002 RMK AO2 LTG DSNT NE T01811083
Observed Flight Rules
May-23 @ 02:55 UTC
(6 minutes ago)
VFR
Wind Visibility
230° at 5 knots 10 miles
Clouds
  • Clear skies
Temperature Dewpoint
18°C / 64°F -8°C / 18°F
Humidity Altimeter Pressure
16% 30.02" Hg 1017 hPa